createdAt,value
2022-09-03T00:01:21.883Z,69.50
2022-09-03T00:03:55.569Z,69.70
2022-09-03T00:06:36.631Z,69.70
2022-09-03T00:09:24.843Z,69.80
2022-09-03T00:11:55.393Z,69.80
2022-09-03T00:14:28.378Z,69.80
2022-09-03T00:17:03.809Z,70.00
2022-09-03T00:19:34.736Z,70.00
2022-09-03T00:22:11.179Z,70.20
2022-09-03T00:24:40.621Z,70.10
2022-09-03T00:27:15.380Z,70.30
2022-09-03T00:29:54.724Z,70.30
2022-09-03T00:32:34.267Z,70.30
2022-09-03T00:35:06.386Z,70.50
2022-09-03T00:37:38.047Z,70.60
2022-09-03T00:40:10.757Z,70.70
2022-09-03T00:42:58.133Z,70.90
2022-09-03T00:45:38.995Z,70.90
2022-09-03T00:48:11.479Z,70.70
2022-09-03T00:50:49.125Z,70.90
2022-09-03T00:53:40.696Z,71.00
2022-09-03T00:56:25.924Z,71.10
2022-09-03T00:59:11.383Z,71.20
2022-09-03T01:02:05.990Z,71.00
2022-09-03T01:05:03.220Z,71.10
2022-09-03T01:07:33.183Z,71.10
2022-09-03T01:09:59.757Z,71.40
2022-09-03T01:12:43.537Z,71.40
2022-09-03T01:15:22.092Z,71.40
2022-09-03T01:18:03.908Z,71.40
2022-09-03T01:20:42.235Z,71.50
2022-09-03T01:23:37.409Z,71.60
2022-09-03T01:26:29.160Z,71.70
2022-09-03T01:29:32.203Z,71.70
2022-09-03T01:32:42.769Z,71.70
2022-09-03T01:35:44.872Z,71.80
2022-09-03T01:38:25.609Z,71.80
2022-09-03T01:41:28.804Z,71.80
2022-09-03T01:44:04.112Z,71.90
2022-09-03T01:46:40.336Z,72.00
2022-09-03T01:49:22.441Z,72.10
2022-09-03T01:52:03.781Z,72.10
2022-09-03T01:54:50.349Z,72.10
2022-09-03T01:57:50.687Z,72.10
2022-09-03T02:00:20.410Z,72.10
2022-09-03T02:02:50.925Z,72.10
2022-09-03T02:05:24.643Z,72.20
2022-09-03T02:07:56.948Z,72.30
2022-09-03T02:10:35.462Z,72.50
2022-09-03T02:13:07.659Z,72.60
2022-09-03T02:15:37.652Z,72.70
2022-09-03T02:18:10.975Z,72.80
2022-09-03T02:20:38.302Z,72.80
2022-09-03T02:23:05.796Z,73.10
2022-09-03T02:25:37.966Z,73.10
2022-09-03T02:28:07.899Z,72.90
2022-09-03T02:30:45.098Z,73.10
2022-09-03T02:33:12.085Z,73.20
2022-09-03T02:35:40.620Z,73.20
2022-09-03T02:38:16.990Z,73.10
2022-09-03T02:40:44.627Z,73.30
2022-09-03T02:43:20.137Z,73.30
2022-09-03T02:45:55.481Z,73.40
2022-09-03T02:48:24.523Z,73.30
2022-09-03T02:50:51.325Z,73.30
2022-09-03T02:53:17.964Z,73.50
2022-09-03T02:55:44.624Z,73.60
2022-09-03T02:58:11.295Z,73.70
2022-09-03T03:00:38.003Z,73.70
2022-09-03T03:03:06.064Z,73.70
2022-09-03T03:05:55.516Z,73.70
2022-09-03T03:08:25.143Z,73.70
2022-09-03T03:10:54.019Z,73.80
2022-09-03T03:13:20.680Z,73.80
2022-09-03T03:15:48.830Z,74.00
2022-09-03T03:18:17.334Z,74.10
2022-09-03T03:20:44.479Z,74.20
2022-09-03T03:23:11.224Z,74.20
2022-09-03T03:25:39.509Z,74.30
2022-09-03T03:28:06.976Z,74.50
2022-09-03T03:30:34.467Z,74.40
2022-09-03T03:33:01.407Z,74.40
2022-09-03T03:35:28.120Z,74.30
2022-09-03T03:37:57.170Z,74.50
2022-09-03T03:40:24.069Z,74.60
2022-09-03T03:42:50.889Z,74.70
2022-09-03T03:45:17.882Z,74.60
2022-09-03T03:47:44.713Z,74.70
2022-09-03T03:50:11.492Z,74.70
2022-09-03T03:52:38.397Z,74.90
2022-09-03T03:55:06.742Z,74.90
2022-09-03T03:57:33.375Z,74.90
2022-09-03T04:00:00.113Z,75.00
2022-09-03T04:02:26.841Z,75.00
2022-09-03T04:04:53.528Z,75.10
2022-09-03T04:07:20.227Z,75.10
2022-09-03T04:09:47.237Z,75.10
2022-09-03T04:12:13.877Z,75.30
2022-09-03T04:14:40.753Z,75.40
2022-09-03T04:17:07.445Z,75.30
2022-09-03T04:19:34.077Z,75.20
2022-09-03T04:22:00.936Z,75.40
2022-09-03T04:24:27.592Z,75.50
2022-09-03T04:26:54.556Z,75.50
2022-09-03T04:29:21.955Z,75.70
2022-09-03T04:32:07.266Z,75.70
2022-09-03T04:34:33.954Z,75.70
2022-09-03T04:37:00.547Z,75.60
2022-09-03T04:39:27.285Z,75.60
2022-09-03T04:41:54.992Z,75.80
2022-09-03T04:44:21.643Z,75.90
2022-09-03T04:46:48.404Z,75.80
2022-09-03T04:49:15.110Z,75.80
2022-09-03T04:51:41.831Z,76.00
2022-09-03T04:54:09.834Z,76.00
2022-09-03T04:56:38.644Z,76.00
2022-09-03T04:59:08.241Z,76.00
2022-09-03T05:01:36.597Z,76.00
2022-09-03T05:04:04.717Z,76.10
2022-09-03T05:06:32.210Z,76.40
2022-09-03T05:08:59.135Z,76.10
2022-09-03T05:11:27.470Z,76.20
2022-09-03T05:13:56.511Z,76.20
2022-09-03T05:16:24.698Z,76.30
2022-09-03T05:18:55.692Z,76.20
2022-09-03T05:21:23.718Z,76.20
2022-09-03T05:23:51.813Z,76.10
2022-09-03T05:26:27.620Z,76.40
2022-09-03T05:28:57.038Z,76.20
2022-09-03T05:31:26.680Z,76.30
2022-09-03T05:33:58.851Z,76.20
2022-09-03T05:36:28.491Z,76.20
2022-09-03T05:38:55.753Z,76.20
2022-09-03T05:41:23.469Z,76.40
2022-09-03T05:43:53.362Z,76.30
2022-09-03T05:46:19.978Z,76.30
2022-09-03T05:48:46.863Z,76.30
2022-09-03T05:51:16.422Z,76.40
2022-09-03T05:53:45.557Z,76.40
2022-09-03T05:56:17.935Z,76.20
2022-09-03T05:58:47.929Z,75.60
2022-09-03T06:01:17.105Z,75.30
2022-09-03T06:03:45.877Z,75.10
2022-09-03T06:06:14.061Z,74.70
2022-09-03T06:08:42.322Z,74.60
2022-09-03T06:11:09.294Z,73.90
2022-09-03T06:13:36.300Z,73.60
2022-09-03T06:16:05.554Z,73.50
2022-09-03T06:18:32.902Z,73.20
2022-09-03T06:21:02.087Z,72.80
2022-09-03T06:23:30.280Z,72.80
2022-09-03T06:26:05.904Z,72.90
2022-09-03T06:28:34.831Z,72.60
2022-09-03T06:31:03.202Z,72.30
2022-09-03T06:33:31.473Z,72.40
2022-09-03T06:35:59.627Z,72.20
2022-09-03T06:38:32.013Z,72.40
2022-09-03T06:41:03.987Z,72.30
2022-09-03T06:43:32.931Z,72.80
2022-09-03T06:46:05.442Z,72.70
2022-09-03T06:48:34.051Z,73.20
2022-09-03T06:51:01.884Z,73.40
2022-09-03T06:53:32.076Z,73.60
2022-09-03T06:56:01.731Z,73.70
2022-09-03T06:58:33.423Z,73.90
2022-09-03T07:01:09.191Z,73.90
2022-09-03T07:03:37.063Z,73.90
2022-09-03T07:06:09.517Z,74.00
2022-09-03T07:08:36.605Z,73.90
2022-09-03T07:11:10.906Z,74.00
2022-09-03T07:13:43.104Z,74.30
2022-09-03T07:16:21.753Z,73.50
2022-09-03T07:18:49.005Z,73.50
2022-09-03T07:21:27.768Z,73.70
2022-09-03T07:23:55.677Z,72.10
2022-09-03T07:26:27.942Z,72.50
2022-09-03T07:28:55.721Z,71.50
2022-09-03T07:31:26.131Z,72.00
2022-09-03T07:34:05.982Z,71.30
2022-09-03T07:36:41.508Z,70.70
2022-09-03T07:39:08.978Z,69.50
2022-09-03T07:41:35.628Z,69.80
2022-09-03T07:44:05.431Z,68.80
2022-09-03T07:46:34.444Z,68.70
2022-09-03T07:49:02.345Z,67.40
2022-09-03T07:51:31.573Z,67.80
2022-09-03T07:54:01.980Z,66.50
2022-09-03T07:56:31.877Z,65.60
2022-09-03T07:58:59.149Z,65.60
2022-09-03T08:01:28.482Z,66.30
2022-09-03T08:03:56.009Z,66.30
2022-09-03T08:06:25.816Z,66.80
2022-09-03T08:09:04.925Z,67.50
2022-09-03T08:11:35.843Z,66.90
2022-09-03T08:14:06.190Z,67.00
2022-09-03T08:16:35.924Z,67.00
2022-09-03T08:19:02.780Z,66.40
2022-09-03T08:21:29.435Z,65.80
2022-09-03T08:24:02.700Z,66.10
2022-09-03T08:26:38.661Z,66.70
2022-09-03T08:29:05.976Z,67.10
2022-09-03T08:31:33.812Z,67.10
2022-09-03T08:34:06.569Z,67.00
2022-09-03T08:36:38.729Z,67.10
2022-09-03T08:39:10.611Z,67.20
2022-09-03T08:42:15.748Z,68.00
2022-09-03T08:44:50.407Z,67.70
2022-09-03T08:47:30.063Z,67.10
2022-09-03T08:50:22.372Z,66.00
2022-09-03T08:53:07.473Z,66.20
2022-09-03T08:55:47.335Z,66.40
2022-09-03T08:58:18.457Z,66.90
2022-09-03T09:00:50.621Z,67.10
2022-09-03T09:03:54.848Z,67.50
2022-09-03T09:06:45.100Z,66.60
2022-09-03T09:09:30.765Z,67.00
2022-09-03T09:12:03.404Z,66.90
2022-09-03T09:14:44.860Z,67.30
2022-09-03T09:17:52.245Z,67.90
2022-09-03T09:20:32.628Z,68.40
2022-09-03T09:23:09.298Z,68.50
2022-09-03T09:25:47.772Z,68.50
2022-09-03T09:28:21.116Z,69.00
2022-09-03T09:30:50.000Z,69.60
2022-09-03T09:33:17.988Z,69.70
2022-09-03T09:35:45.851Z,69.40
2022-09-03T09:38:13.863Z,69.60
2022-09-03T09:40:45.679Z,69.40
2022-09-03T09:43:16.009Z,69.30
2022-09-03T09:45:45.262Z,69.50
2022-09-03T09:48:31.736Z,69.60
2022-09-03T09:51:11.920Z,69.50
2022-09-03T09:53:40.064Z,70.20
2022-09-03T09:56:07.976Z,70.50
2022-09-03T09:58:35.368Z,71.80
2022-09-03T10:01:03.964Z,72.00
2022-09-03T10:03:37.669Z,73.90
2022-09-03T10:06:27.742Z,73.60
2022-09-03T10:09:26.732Z,73.60
2022-09-03T10:12:25.973Z,73.60
2022-09-03T10:15:12.938Z,73.40
2022-09-03T10:18:08.876Z,72.00
2022-09-03T10:20:44.767Z,72.00
2022-09-03T10:23:25.660Z,71.90
2022-09-03T10:26:15.022Z,72.00
2022-09-03T10:28:43.100Z,71.40
2022-09-03T10:31:33.162Z,72.10
2022-09-03T10:34:00.205Z,72.70
2022-09-03T10:36:35.476Z,71.90
2022-09-03T10:39:09.843Z,71.70
2022-09-03T10:41:54.066Z,70.80
2022-09-03T10:44:46.858Z,70.80
2022-09-03T10:47:18.470Z,70.70
2022-09-03T10:50:03.019Z,70.80
2022-09-03T10:52:59.815Z,69.90
2022-09-03T10:56:04.342Z,70.20
2022-09-03T10:58:55.896Z,69.80
2022-09-03T11:01:57.355Z,69.50
2022-09-03T11:04:53.343Z,69.00
2022-09-03T11:07:31.815Z,69.40
2022-09-03T11:10:15.864Z,69.60
2022-09-03T11:12:57.847Z,69.60
2022-09-03T11:15:35.092Z,70.00
2022-09-03T11:18:13.715Z,70.40
2022-09-03T11:20:42.920Z,70.40
2022-09-03T11:23:13.352Z,70.40
2022-09-03T11:25:56.569Z,71.30
2022-09-03T11:28:52.845Z,70.40
2022-09-03T11:31:47.601Z,70.30
2022-09-03T11:34:32.302Z,70.60
2022-09-03T11:37:26.923Z,69.80
2022-09-03T11:40:16.857Z,69.40
2022-09-03T11:42:44.444Z,69.80
2022-09-03T11:45:31.958Z,70.00
2022-09-03T11:47:59.204Z,69.90
2022-09-03T11:50:28.844Z,69.40
2022-09-03T11:53:13.201Z,69.10
2022-09-03T11:55:54.654Z,69.20
2022-09-03T11:58:32.272Z,69.60
2022-09-03T12:01:01.316Z,69.60
2022-09-03T12:03:39.956Z,69.40
2022-09-03T12:06:32.198Z,69.30
2022-09-03T12:09:13.708Z,69.20
2022-09-03T12:12:23.907Z,68.10
2022-09-03T12:15:23.411Z,68.50
2022-09-03T12:18:19.898Z,68.70
2022-09-03T12:20:48.905Z,68.20
2022-09-03T12:23:29.451Z,68.80
2022-09-03T12:25:57.349Z,68.10
2022-09-03T12:28:26.364Z,67.90
2022-09-03T12:30:53.996Z,68.30
2022-09-03T12:33:22.767Z,68.50
2022-09-03T12:35:59.165Z,67.90
2022-09-03T12:38:29.264Z,68.40
2022-09-03T12:43:51.846Z,68.40
2022-09-03T12:46:20.919Z,68.60
2022-09-03T12:51:52.006Z,68.60
2022-09-03T12:54:20.933Z,69.20
2022-09-03T12:56:55.839Z,68.80
2022-09-03T12:59:26.270Z,68.70
2022-09-03T13:01:57.131Z,68.60
2022-09-03T13:04:30.063Z,69.20
2022-09-03T13:07:05.535Z,69.10
2022-09-03T13:09:37.323Z,69.20
2022-09-03T13:12:07.314Z,69.30
2022-09-03T13:14:44.360Z,69.70
2022-09-03T13:17:21.663Z,70.20
2022-09-03T13:19:51.247Z,70.00
2022-09-03T13:22:38.813Z,70.20
2022-09-03T13:26:05.856Z,69.70
2022-09-03T13:28:47.704Z,69.50
2022-09-03T13:31:34.875Z,69.60
2022-09-03T13:34:09.357Z,69.90
2022-09-03T13:36:55.792Z,69.80
2022-09-03T13:39:36.883Z,69.60
2022-09-03T13:42:09.325Z,69.40
2022-09-03T13:44:52.926Z,69.40
2022-09-03T13:47:31.773Z,69.80
2022-09-03T13:50:22.828Z,69.80
2022-09-03T13:53:02.505Z,69.90
2022-09-03T13:55:47.336Z,70.60
2022-09-03T13:58:31.808Z,71.10
2022-09-03T14:00:58.526Z,70.90
2022-09-03T14:03:31.551Z,70.70
2022-09-03T14:06:25.378Z,71.20
2022-09-03T14:09:18.238Z,71.60
2022-09-03T14:11:50.488Z,72.00
2022-09-03T14:14:36.919Z,71.70
2022-09-03T14:17:30.448Z,72.40
2022-09-03T14:20:08.970Z,72.60
2022-09-03T14:23:01.681Z,72.90
2022-09-03T14:25:28.951Z,72.80
2022-09-03T14:28:12.673Z,72.50
2022-09-03T14:31:16.913Z,72.40
2022-09-03T14:34:10.012Z,72.20
2022-09-03T14:36:55.412Z,72.00
2022-09-03T14:39:33.189Z,72.30
2022-09-03T14:42:06.893Z,72.30
2022-09-03T14:44:45.459Z,72.00
2022-09-03T14:47:21.758Z,72.30
2022-09-03T14:50:09.628Z,72.00
2022-09-03T14:52:49.532Z,71.80
2022-09-03T14:55:25.144Z,71.80
2022-09-03T14:58:34.550Z,72.30
2022-09-03T15:01:11.149Z,71.70
2022-09-03T15:03:43.885Z,72.00
2022-09-03T15:06:28.103Z,71.70
2022-09-03T15:09:25.558Z,71.80
2022-09-03T15:11:54.534Z,72.00
2022-09-03T15:14:46.236Z,72.40
2022-09-03T15:17:43.987Z,72.40
2022-09-03T15:20:17.364Z,72.20
2022-09-03T15:23:21.579Z,72.40
2022-09-03T15:25:51.448Z,72.30
2022-09-03T15:28:29.946Z,72.30
2022-09-03T15:31:09.144Z,72.80
2022-09-03T15:33:47.671Z,72.70
2022-09-03T15:36:26.851Z,72.80
2022-09-03T15:39:02.038Z,72.50
2022-09-03T15:41:50.465Z,72.40
2022-09-03T15:44:20.049Z,72.50
2022-09-03T15:47:05.084Z,72.50
2022-09-03T15:49:58.306Z,72.80
2022-09-03T15:52:53.207Z,72.50
2022-09-03T15:55:38.374Z,72.80
2022-09-03T15:58:35.096Z,73.10
2022-09-03T16:01:09.523Z,73.20
2022-09-03T16:03:57.544Z,73.30
2022-09-03T16:06:29.019Z,73.40
2022-09-03T16:09:05.369Z,73.40
2022-09-03T16:11:57.863Z,73.60
2022-09-03T16:14:35.609Z,73.70
2022-09-03T16:17:21.071Z,73.60
2022-09-03T16:20:10.050Z,73.70
2022-09-03T16:22:54.668Z,73.70
2022-09-03T16:25:30.893Z,73.60
2022-09-03T16:28:08.062Z,73.80
2022-09-03T16:30:39.943Z,74.10
2022-09-03T16:33:28.172Z,73.70
2022-09-03T16:36:24.688Z,73.90
2022-09-03T16:39:14.809Z,74.50
2022-09-03T16:41:52.277Z,74.50
2022-09-03T16:44:32.164Z,74.80
2022-09-03T16:47:32.727Z,74.90
2022-09-03T16:50:21.751Z,75.10
2022-09-03T16:53:13.977Z,75.40
2022-09-03T16:56:08.833Z,75.50
2022-09-03T16:59:00.156Z,75.40
2022-09-03T17:01:36.236Z,75.40
2022-09-03T17:04:21.320Z,75.50
2022-09-03T17:07:06.144Z,75.60
2022-09-03T17:09:57.880Z,76.00
2022-09-03T17:12:58.504Z,77.20
2022-09-03T17:15:31.225Z,80.10
2022-09-03T17:18:21.616Z,81.40
2022-09-03T17:21:08.826Z,83.10
2022-09-03T17:23:52.020Z,83.70
2022-09-03T17:26:55.331Z,84.00
2022-09-03T17:29:45.848Z,85.10
2022-09-03T17:32:50.989Z,86.00
2022-09-03T17:35:41.705Z,87.80
2022-09-03T17:38:17.377Z,89.60
2022-09-03T17:41:08.026Z,90.10
2022-09-03T17:44:01.679Z,89.80
2022-09-03T17:46:49.744Z,89.60
2022-09-03T17:49:50.559Z,90.30
2022-09-03T17:52:27.834Z,92.30
2022-09-03T17:54:59.916Z,93.60
2022-09-03T17:57:38.130Z,95.40
2022-09-03T18:00:07.183Z,96.10
2022-09-03T18:03:04.898Z,96.40
2022-09-03T18:06:00.871Z,96.70
2022-09-03T18:08:42.095Z,96.60
2022-09-03T18:11:39.263Z,97.10
2022-09-03T18:14:15.790Z,96.90
2022-09-03T18:17:08.376Z,96.70
2022-09-03T18:20:04.233Z,96.80
2022-09-03T18:23:20.620Z,96.40
2022-09-03T18:26:09.528Z,96.40
2022-09-03T18:29:07.168Z,97.00
2022-09-03T18:31:53.107Z,96.50
2022-09-03T18:34:48.885Z,96.40
2022-09-03T18:37:45.845Z,96.20
2022-09-03T18:40:46.112Z,96.60
2022-09-03T18:43:49.809Z,96.50
2022-09-03T18:50:38.375Z,96.60
2022-09-03T18:53:31.622Z,97.20
2022-09-03T18:56:26.079Z,97.30
2022-09-03T18:59:20.061Z,97.10
2022-09-03T19:02:05.611Z,97.40
2022-09-03T19:05:22.147Z,97.40
2022-09-03T19:08:32.110Z,97.80
2022-09-03T19:11:42.678Z,98.00
2022-09-03T19:14:56.533Z,98.50
2022-09-03T19:18:19.284Z,98.60
2022-09-03T19:21:16.651Z,98.50
2022-09-03T19:24:02.027Z,98.50
2022-09-03T19:27:23.591Z,98.90
2022-09-03T19:30:17.541Z,98.60
2022-09-03T19:33:17.227Z,98.80
2022-09-03T19:36:27.798Z,98.60
2022-09-03T19:39:31.978Z,98.90
2022-09-03T19:42:41.430Z,98.80
2022-09-03T19:45:48.540Z,98.70
2022-09-03T19:49:01.275Z,99.00
2022-09-03T19:52:03.140Z,99.10
2022-09-03T19:54:49.272Z,98.70
2022-09-03T19:57:36.899Z,99.00
2022-09-03T20:00:32.538Z,99.00
2022-09-03T20:03:20.432Z,98.80
2022-09-03T20:06:10.245Z,98.50
2022-09-03T20:08:56.957Z,98.50
2022-09-03T20:11:27.457Z,98.30
2022-09-03T20:14:13.532Z,98.50
2022-09-03T20:16:57.417Z,98.70
2022-09-03T20:19:37.733Z,98.90
2022-09-03T20:22:19.397Z,99.00
2022-09-03T20:25:23.968Z,99.10
2022-09-03T20:28:16.241Z,99.00
2022-09-03T20:31:02.096Z,98.80
2022-09-03T20:33:42.025Z,99.10
2022-09-03T20:36:27.154Z,99.20
2022-09-03T20:39:21.418Z,99.30
2022-09-03T20:42:25.685Z,99.40
2022-09-03T20:45:03.357Z,99.40
2022-09-03T20:47:59.935Z,99.30
2022-09-03T20:50:56.390Z,99.50
2022-09-03T20:53:26.004Z,99.50
2022-09-03T20:56:23.103Z,99.80
2022-09-03T20:59:02.971Z,99.80
2022-09-03T21:02:04.582Z,99.80
2022-09-03T21:04:55.045Z,99.90
2022-09-03T21:07:40.047Z,99.90
2022-09-03T21:10:23.199Z,99.90
2022-09-03T21:13:20.950Z,99.90
2022-09-03T21:15:58.184Z,99.90
2022-09-03T21:18:37.087Z,99.90
2022-09-03T21:21:15.854Z,99.90
2022-09-03T21:23:47.937Z,99.90
2022-09-03T21:26:23.149Z,99.90
2022-09-03T21:29:08.768Z,99.90
2022-09-03T21:31:46.581Z,99.90
2022-09-03T21:34:25.219Z,99.90
2022-09-03T21:36:51.865Z,99.90
2022-09-03T21:39:48.178Z,99.90
2022-09-03T21:42:34.109Z,99.90
2022-09-03T21:45:08.768Z,99.90
2022-09-03T21:47:43.598Z,99.90
2022-09-03T21:50:25.562Z,99.90
2022-09-03T21:53:03.764Z,99.90
2022-09-03T21:55:44.809Z,99.90
2022-09-03T21:58:34.775Z,99.90
2022-09-03T22:01:08.603Z,99.90
2022-09-03T22:03:35.393Z,99.90
2022-09-03T22:06:14.008Z,99.90
2022-09-03T22:08:54.974Z,99.90
2022-09-03T22:11:29.506Z,99.90
2022-09-03T22:14:09.629Z,99.90
2022-09-03T22:17:03.885Z,99.90
2022-09-03T22:19:38.723Z,99.90
2022-09-03T22:22:14.015Z,99.90
2022-09-03T22:24:51.947Z,99.90
2022-09-03T22:27:37.608Z,99.90
2022-09-03T22:30:20.259Z,99.90
2022-09-03T22:32:57.888Z,99.90
2022-09-03T22:35:52.396Z,99.90
2022-09-03T22:38:34.131Z,99.90
2022-09-03T22:41:20.025Z,99.90
2022-09-03T22:44:00.920Z,99.90
2022-09-03T22:46:36.587Z,99.90
2022-09-03T22:49:17.779Z,99.90
2022-09-03T22:52:22.520Z,99.90
2022-09-03T22:55:14.994Z,99.90
2022-09-03T22:58:08.628Z,99.90
2022-09-03T23:00:45.158Z,99.90
2022-09-03T23:03:19.382Z,99.90
2022-09-03T23:05:56.495Z,99.90
2022-09-03T23:08:29.776Z,99.90
2022-09-03T23:11:08.736Z,99.90
2022-09-03T23:13:41.831Z,99.90
2022-09-03T23:16:46.916Z,99.90
2022-09-03T23:21:50.898Z,99.90
2022-09-03T23:24:28.719Z,99.90
2022-09-03T23:26:55.705Z,99.90
2022-09-03T23:29:45.870Z,99.90
2022-09-03T23:32:12.606Z,99.90
2022-09-03T23:34:40.577Z,99.90
2022-09-03T23:37:33.947Z,99.90
2022-09-03T23:40:12.732Z,99.90
2022-09-03T23:42:48.183Z,99.90
2022-09-03T23:45:23.747Z,99.90
2022-09-03T23:48:03.111Z,99.90
2022-09-03T23:50:47.183Z,99.90
2022-09-03T23:53:28.208Z,99.90
2022-09-03T23:56:16.040Z,99.90
2022-09-03T23:58:42.616Z,99.90
